createdAt,value
2022-09-26T00:00:42.158Z,12.20
2022-09-26T00:03:09.913Z,12.20
2022-09-26T00:05:37.640Z,12.20
2022-09-26T00:08:05.236Z,12.20
2022-09-26T00:10:32.495Z,12.20
2022-09-26T00:12:59.330Z,12.20
2022-09-26T00:15:26.163Z,12.20
2022-09-26T00:17:53.542Z,12.20
2022-09-26T00:20:20.399Z,12.20
2022-09-26T00:22:47.146Z,12.20
2022-09-26T00:25:14.187Z,12.30
2022-09-26T00:27:40.938Z,12.30
2022-09-26T00:30:08.223Z,12.30
2022-09-26T00:32:34.987Z,12.30
2022-09-26T00:35:01.774Z,12.30
2022-09-26T00:37:28.608Z,12.30
2022-09-26T00:39:55.394Z,12.30
2022-09-26T00:42:22.693Z,12.40
2022-09-26T00:44:54.353Z,12.40
2022-09-26T00:47:26.437Z,12.40
2022-09-26T00:49:57.112Z,12.40
2022-09-26T00:52:29.986Z,12.40
2022-09-26T00:54:57.993Z,12.40
2022-09-26T00:57:28.755Z,12.40
2022-09-26T00:59:59.082Z,12.40
2022-09-26T01:02:27.540Z,12.40
2022-09-26T01:04:54.938Z,12.40
2022-09-26T01:07:23.336Z,12.40
2022-09-26T01:09:50.317Z,12.50
2022-09-26T01:12:17.236Z,12.50
2022-09-26T01:14:44.026Z,12.40
2022-09-26T01:17:10.780Z,12.40
2022-09-26T01:19:56.922Z,12.40
2022-09-26T01:22:23.870Z,12.40
2022-09-26T01:25:01.457Z,12.40
2022-09-26T01:27:47.278Z,12.30
2022-09-26T01:30:16.779Z,12.30
2022-09-26T01:33:11.801Z,12.30
2022-09-26T01:36:05.721Z,12.30
2022-09-26T01:38:48.493Z,12.30
2022-09-26T01:41:48.289Z,12.30
2022-09-26T01:44:26.972Z,12.30
2022-09-26T01:47:15.502Z,12.30
2022-09-26T01:49:53.272Z,12.40
2022-09-26T01:52:43.521Z,12.40
2022-09-26T01:55:16.485Z,12.40
2022-09-26T01:57:48.924Z,12.40
2022-09-26T02:00:15.743Z,12.40
2022-09-26T02:02:44.316Z,12.40
2022-09-26T02:05:19.115Z,12.40
2022-09-26T02:07:49.737Z,12.40
2022-09-26T02:10:38.669Z,12.50
2022-09-26T02:13:16.110Z,12.40
2022-09-26T02:15:43.152Z,12.50
2022-09-26T02:18:15.396Z,12.50
2022-09-26T02:20:45.893Z,12.50
2022-09-26T02:23:12.666Z,12.50
2022-09-26T02:25:40.123Z,12.50
2022-09-26T02:28:07.114Z,12.50
2022-09-26T02:30:33.896Z,12.50
2022-09-26T02:33:00.641Z,12.50
2022-09-26T02:35:46.263Z,12.50
2022-09-26T02:38:13.118Z,12.60
2022-09-26T02:41:14.056Z,12.60
2022-09-26T02:43:49.680Z,12.60
2022-09-26T02:46:43.659Z,12.50
2022-09-26T02:49:13.555Z,12.50
2022-09-26T02:51:54.368Z,12.50
2022-09-26T02:54:31.016Z,12.50
2022-09-26T02:57:22.913Z,12.50
2022-09-26T02:59:49.916Z,12.50
2022-09-26T03:02:19.336Z,12.50
2022-09-26T03:04:54.889Z,12.50
2022-09-26T03:07:26.221Z,12.50
2022-09-26T03:09:53.195Z,12.50
2022-09-26T03:12:20.171Z,12.50
2022-09-26T03:14:47.061Z,12.50
2022-09-26T03:17:14.336Z,12.50
2022-09-26T03:19:46.743Z,12.50
2022-09-26T03:22:15.312Z,12.50
2022-09-26T03:24:42.656Z,12.50
2022-09-26T03:27:11.813Z,12.50
2022-09-26T03:29:39.381Z,12.50
2022-09-26T03:32:06.794Z,12.50
2022-09-26T03:34:33.856Z,12.50
2022-09-26T03:37:01.120Z,12.50
2022-09-26T03:39:27.976Z,12.50
2022-09-26T03:41:55.474Z,12.50
2022-09-26T03:44:22.513Z,12.50
2022-09-26T03:46:49.329Z,12.50
2022-09-26T03:49:16.141Z,12.50
2022-09-26T03:51:44.308Z,12.50
2022-09-26T03:54:14.363Z,12.50
2022-09-26T03:56:41.309Z,12.50
2022-09-26T03:59:09.112Z,12.50
2022-09-26T04:01:36.014Z,12.50
2022-09-26T04:04:03.000Z,12.50
2022-09-26T04:06:29.802Z,12.50
2022-09-26T04:08:56.650Z,12.50
2022-09-26T04:11:24.587Z,12.50
2022-09-26T04:13:53.265Z,12.50
2022-09-26T04:16:21.469Z,12.50
2022-09-26T04:18:48.266Z,12.50
2022-09-26T04:21:15.387Z,12.50
2022-09-26T04:23:42.918Z,12.50
2022-09-26T04:26:22.745Z,12.50
2022-09-26T04:28:53.535Z,12.50
2022-09-26T04:31:21.594Z,12.50
2022-09-26T04:33:49.116Z,12.50
2022-09-26T04:36:16.112Z,12.40
2022-09-26T04:38:43.052Z,12.40
2022-09-26T04:41:11.374Z,12.30
2022-09-26T04:43:38.555Z,12.30
2022-09-26T04:46:09.777Z,12.20
2022-09-26T04:48:36.826Z,12.20
2022-09-26T04:51:07.454Z,12.20
2022-09-26T04:53:34.981Z,12.10
2022-09-26T04:56:02.277Z,12.10
2022-09-26T04:58:30.015Z,12.10
2022-09-26T05:01:01.141Z,12.10
2022-09-26T05:03:29.597Z,12.10
2022-09-26T05:05:56.748Z,12.10
2022-09-26T05:08:23.625Z,12.10
2022-09-26T05:10:54.900Z,12.10
2022-09-26T05:13:22.641Z,12.10
2022-09-26T05:15:50.194Z,12.00
2022-09-26T05:18:16.985Z,12.10
2022-09-26T05:20:48.251Z,12.10
2022-09-26T05:23:44.378Z,12.10
2022-09-26T05:28:11.181Z,12.10
2022-09-26T05:30:38.375Z,12.20
2022-09-26T05:33:05.423Z,12.10
2022-09-26T05:35:35.850Z,12.10
2022-09-26T05:38:03.111Z,12.10
2022-09-26T05:40:48.857Z,12.20
2022-09-26T05:43:15.781Z,12.20
2022-09-26T05:45:43.168Z,12.10
2022-09-26T05:48:09.976Z,12.10
2022-09-26T05:50:39.420Z,12.10
2022-09-26T05:53:09.967Z,12.10
2022-09-26T05:55:39.505Z,12.10
2022-09-26T05:58:06.766Z,12.10
2022-09-26T06:00:34.267Z,12.10
2022-09-26T06:03:04.329Z,12.20
2022-09-26T06:05:33.669Z,12.20
2022-09-26T06:08:01.806Z,12.30
2022-09-26T06:10:28.963Z,12.30
2022-09-26T06:12:55.852Z,12.30
2022-09-26T06:15:24.906Z,12.30
2022-09-26T06:18:01.648Z,12.40
2022-09-26T06:20:28.541Z,12.40
2022-09-26T06:22:55.978Z,12.50
2022-09-26T06:25:22.967Z,12.70
2022-09-26T06:27:50.029Z,13.00
2022-09-26T06:30:16.873Z,13.20
2022-09-26T06:32:45.487Z,13.20
2022-09-26T06:35:12.971Z,13.30
2022-09-26T06:37:39.990Z,13.40
2022-09-26T06:40:09.042Z,13.50
2022-09-26T06:42:37.952Z,13.50
2022-09-26T06:45:08.996Z,13.60
2022-09-26T06:47:35.972Z,13.60
2022-09-26T06:50:03.033Z,13.60
2022-09-26T06:52:34.042Z,13.60
2022-09-26T06:55:02.573Z,13.70
2022-09-26T06:57:35.940Z,13.90
2022-09-26T07:00:03.599Z,14.00
2022-09-26T07:02:30.387Z,14.40
2022-09-26T07:04:57.266Z,14.50
2022-09-26T07:07:24.210Z,14.90
2022-09-26T07:09:51.622Z,15.20
2022-09-26T07:12:18.413Z,15.30
2022-09-26T07:14:47.118Z,15.60
2022-09-26T07:17:17.086Z,15.70
2022-09-26T07:19:44.243Z,15.90
2022-09-26T07:22:11.195Z,16.20
2022-09-26T07:24:38.092Z,16.20
2022-09-26T07:27:04.910Z,16.20
2022-09-26T07:29:32.818Z,16.30
2022-09-26T07:32:00.204Z,16.30
2022-09-26T07:34:27.163Z,16.40
2022-09-26T07:36:54.233Z,16.50
2022-09-26T07:39:21.280Z,16.70
2022-09-26T07:41:49.789Z,16.90
2022-09-26T07:45:02.286Z,17.00
2022-09-26T07:47:22.251Z,17.20
2022-09-26T07:50:07.374Z,17.30
2022-09-26T07:52:34.251Z,17.20
2022-09-26T07:55:01.080Z,17.20
2022-09-26T07:57:35.325Z,17.20
2022-09-26T08:00:03.811Z,17.00
2022-09-26T08:02:35.810Z,16.60
2022-09-26T08:05:03.541Z,16.30
2022-09-26T08:07:31.129Z,16.20
2022-09-26T08:09:59.016Z,16.30
2022-09-26T08:12:27.107Z,16.50
2022-09-26T08:14:53.995Z,16.70
2022-09-26T08:17:20.805Z,16.90
2022-09-26T08:19:47.595Z,16.90
2022-09-26T08:22:14.675Z,17.00
2022-09-26T08:24:41.975Z,17.20
2022-09-26T08:27:09.542Z,17.50
2022-09-26T08:29:36.325Z,17.50
2022-09-26T08:32:03.421Z,17.60
2022-09-26T08:34:32.126Z,17.80
2022-09-26T08:36:59.147Z,18.00
2022-09-26T08:39:30.078Z,18.20
2022-09-26T08:42:15.478Z,18.40
2022-09-26T08:44:49.488Z,18.40
2022-09-26T08:47:43.194Z,18.30
2022-09-26T08:50:32.694Z,18.00
2022-09-26T08:53:01.558Z,17.60
2022-09-26T08:55:37.368Z,17.20
2022-09-26T08:58:28.518Z,16.80
2022-09-26T09:00:59.931Z,16.50
2022-09-26T09:03:30.096Z,16.30
2022-09-26T09:06:07.802Z,16.00
2022-09-26T09:08:55.290Z,15.80
2022-09-26T09:11:34.469Z,15.70
2022-09-26T09:14:06.941Z,15.80
2022-09-26T09:16:53.295Z,15.90
2022-09-26T09:19:50.734Z,16.10
2022-09-26T09:22:46.456Z,16.50
2022-09-26T09:25:24.187Z,16.90
2022-09-26T09:28:00.073Z,17.80
2022-09-26T09:30:46.737Z,18.10
2022-09-26T09:33:17.142Z,18.70
2022-09-26T09:35:48.598Z,19.40
2022-09-26T09:38:21.081Z,20.10
2022-09-26T09:40:51.116Z,20.50
2022-09-26T09:43:26.790Z,20.90
2022-09-26T09:45:58.605Z,21.40
2022-09-26T09:48:27.221Z,21.60
2022-09-26T09:51:13.369Z,21.70
2022-09-26T09:53:59.666Z,21.70
2022-09-26T09:56:48.732Z,21.20
2022-09-26T09:59:28.876Z,21.20
2022-09-26T10:02:11.982Z,21.00
2022-09-26T10:04:49.077Z,21.00
2022-09-26T10:07:16.356Z,20.90
2022-09-26T10:09:46.331Z,20.90
2022-09-26T10:12:17.111Z,20.80
2022-09-26T10:14:58.731Z,20.70
2022-09-26T10:17:25.639Z,20.30
2022-09-26T10:19:52.514Z,20.10
2022-09-26T10:22:26.114Z,20.00
2022-09-26T10:25:08.539Z,19.90
2022-09-26T10:27:36.971Z,19.70
2022-09-26T10:30:07.502Z,19.60
2022-09-26T10:32:45.678Z,19.50
2022-09-26T10:35:20.896Z,19.30
2022-09-26T10:38:06.257Z,19.10
2022-09-26T10:40:46.268Z,19.00
2022-09-26T10:43:28.676Z,19.00
2022-09-26T10:46:03.770Z,19.00
2022-09-26T10:48:51.796Z,18.90
2022-09-26T10:51:24.803Z,18.80
2022-09-26T10:53:53.555Z,18.70
2022-09-26T10:56:25.974Z,18.60
2022-09-26T10:58:58.901Z,18.60
2022-09-26T11:01:31.289Z,18.70
2022-09-26T11:04:10.274Z,19.00
2022-09-26T11:06:41.146Z,19.20
2022-09-26T11:09:07.986Z,19.40
2022-09-26T11:11:37.441Z,19.50
2022-09-26T11:14:07.466Z,19.60
2022-09-26T11:16:43.503Z,19.60
2022-09-26T11:19:28.354Z,19.60
2022-09-26T11:21:58.613Z,19.60
2022-09-26T11:24:37.353Z,19.40
2022-09-26T11:27:45.059Z,19.10
2022-09-26T11:30:12.554Z,19.00
2022-09-26T11:32:43.546Z,18.80
2022-09-26T11:35:45.648Z,18.60
2022-09-26T11:38:38.354Z,18.60
2022-09-26T11:41:38.499Z,18.70
2022-09-26T11:44:05.303Z,18.70
2022-09-26T11:47:13.306Z,18.70
2022-09-26T11:49:45.312Z,18.80
2022-09-26T11:52:24.310Z,18.70
2022-09-26T11:55:08.138Z,18.80
2022-09-26T11:57:43.226Z,18.90
2022-09-26T12:00:29.077Z,19.00
2022-09-26T12:03:02.170Z,19.20
2022-09-26T12:05:59.402Z,19.40
2022-09-26T12:09:00.511Z,19.60
2022-09-26T12:11:49.167Z,19.80
2022-09-26T12:14:37.019Z,20.00
2022-09-26T12:17:18.122Z,20.20
2022-09-26T12:20:01.546Z,20.30
2022-09-26T12:22:36.731Z,20.20
2022-09-26T12:25:09.255Z,20.00
2022-09-26T12:27:47.238Z,19.90
2022-09-26T12:30:35.281Z,20.00
2022-09-26T12:33:23.482Z,20.30
2022-09-26T12:35:53.082Z,20.50
2022-09-26T12:38:32.421Z,20.30
2022-09-26T12:41:14.401Z,20.10
2022-09-26T12:44:11.999Z,19.90
2022-09-26T12:46:47.384Z,19.80
2022-09-26T12:49:32.855Z,19.60
2022-09-26T12:52:27.440Z,19.40
2022-09-26T12:55:14.316Z,19.40
2022-09-26T12:57:57.164Z,19.40
2022-09-26T13:00:24.924Z,19.70
2022-09-26T13:02:51.791Z,20.00
2022-09-26T13:05:31.107Z,20.50
2022-09-26T13:08:12.865Z,20.90
2022-09-26T13:11:07.565Z,21.20
2022-09-26T13:13:39.950Z,21.50
2022-09-26T13:16:30.943Z,21.80
2022-09-26T13:19:22.925Z,22.00
2022-09-26T13:22:01.778Z,22.30
2022-09-26T13:24:52.277Z,22.40
2022-09-26T13:27:27.955Z,22.60
2022-09-26T13:30:06.516Z,22.70
2022-09-26T13:32:53.899Z,22.50
2022-09-26T13:35:25.880Z,22.00
2022-09-26T13:38:10.067Z,21.40
2022-09-26T13:40:58.911Z,21.00
2022-09-26T13:43:58.885Z,20.80
2022-09-26T13:46:36.081Z,20.60
2022-09-26T13:49:05.671Z,20.50
2022-09-26T13:51:54.597Z,20.30
2022-09-26T13:54:41.077Z,20.10
2022-09-26T13:58:00.056Z,19.80
2022-09-26T14:00:30.497Z,19.50
2022-09-26T14:03:18.033Z,19.20
2022-09-26T14:05:45.804Z,19.00
2022-09-26T14:08:43.383Z,18.70
2022-09-26T14:11:19.487Z,18.60
2022-09-26T14:13:47.153Z,18.50
2022-09-26T14:16:32.661Z,18.50
2022-09-26T14:19:06.481Z,18.70
2022-09-26T14:21:33.485Z,18.90
2022-09-26T14:24:28.130Z,19.00
2022-09-26T14:26:58.801Z,19.20
2022-09-26T14:29:28.969Z,19.20
2022-09-26T14:32:01.718Z,19.20
2022-09-26T14:34:30.571Z,19.20
2022-09-26T14:37:01.216Z,19.10
2022-09-26T14:39:42.000Z,19.00
2022-09-26T14:42:32.910Z,19.00
2022-09-26T14:45:05.122Z,19.00
2022-09-26T14:47:40.269Z,18.90
2022-09-26T14:50:12.334Z,18.70
2022-09-26T14:52:39.246Z,18.70
2022-09-26T14:55:07.041Z,18.60
2022-09-26T14:57:34.142Z,18.40
2022-09-26T15:00:01.281Z,18.40
2022-09-26T15:02:34.369Z,18.40
2022-09-26T15:05:22.175Z,18.30
2022-09-26T15:07:53.532Z,18.30
2022-09-26T15:10:21.814Z,18.20
2022-09-26T15:12:52.306Z,18.20
2022-09-26T15:16:10.131Z,18.10
2022-09-26T15:18:41.550Z,18.10
2022-09-26T15:21:52.785Z,18.00
2022-09-26T15:24:36.796Z,18.00
2022-09-26T15:27:11.894Z,18.00
2022-09-26T15:29:47.395Z,18.00
2022-09-26T15:32:17.178Z,18.00
2022-09-26T15:34:43.994Z,17.90
2022-09-26T15:37:32.053Z,17.90
2022-09-26T15:40:19.000Z,17.80
2022-09-26T15:42:58.385Z,17.70
2022-09-26T15:45:46.516Z,17.60
2022-09-26T15:48:19.710Z,17.50
2022-09-26T15:50:56.390Z,17.40
2022-09-26T15:53:44.797Z,17.30
2022-09-26T15:56:21.330Z,17.10
2022-09-26T15:59:07.159Z,17.00
2022-09-26T16:01:34.062Z,16.90
2022-09-26T16:04:27.177Z,16.80
2022-09-26T16:06:54.223Z,16.70
2022-09-26T16:09:23.541Z,16.60
2022-09-26T16:11:52.582Z,16.50
2022-09-26T16:14:49.617Z,16.40
2022-09-26T16:17:16.399Z,16.30
2022-09-26T16:19:45.876Z,16.20
2022-09-26T16:22:44.978Z,16.00
2022-09-26T16:25:20.585Z,15.90
2022-09-26T16:27:50.579Z,15.80
2022-09-26T16:30:30.055Z,15.80
2022-09-26T16:33:07.461Z,15.70
2022-09-26T16:35:35.609Z,15.60
2022-09-26T16:38:26.251Z,15.50
2022-09-26T16:40:54.319Z,15.40
2022-09-26T16:43:27.098Z,15.30
2022-09-26T16:46:02.872Z,15.30
2022-09-26T16:48:37.697Z,15.20
2022-09-26T16:51:25.108Z,15.10
2022-09-26T16:53:53.810Z,15.00
2022-09-26T16:56:24.197Z,15.00
2022-09-26T16:58:57.917Z,14.90
2022-09-26T17:01:47.984Z,14.80
2022-09-26T17:04:18.408Z,14.70
2022-09-26T17:06:46.045Z,14.70
2022-09-26T17:09:21.030Z,14.70
2022-09-26T17:11:49.674Z,14.60
2022-09-26T17:14:18.539Z,14.60
2022-09-26T17:16:47.024Z,14.50
2022-09-26T17:19:14.814Z,14.50
2022-09-26T17:21:41.552Z,14.40
2022-09-26T17:24:16.167Z,14.30
2022-09-26T17:26:50.668Z,14.20
2022-09-26T17:29:19.967Z,14.20
2022-09-26T17:31:46.737Z,14.10
2022-09-26T17:34:14.645Z,14.00
2022-09-26T17:36:44.884Z,14.00
2022-09-26T17:39:15.961Z,13.90
2022-09-26T17:41:43.392Z,13.80
2022-09-26T17:44:10.249Z,13.80
2022-09-26T17:46:38.347Z,13.80
2022-09-26T17:49:06.641Z,13.80
2022-09-26T17:51:33.845Z,13.80
2022-09-26T17:54:00.723Z,13.80
2022-09-26T17:56:27.661Z,13.70
2022-09-26T17:58:57.002Z,13.80
2022-09-26T18:01:28.053Z,13.80
2022-09-26T18:03:57.446Z,13.80
2022-09-26T18:06:26.077Z,13.70
2022-09-26T18:08:54.967Z,13.70
2022-09-26T18:11:21.846Z,13.70
2022-09-26T18:13:52.441Z,13.80
2022-09-26T18:16:19.401Z,13.80
2022-09-26T18:18:48.032Z,13.80
2022-09-26T18:21:17.654Z,13.80
2022-09-26T18:23:49.463Z,13.80
2022-09-26T18:26:26.792Z,13.80
2022-09-26T18:28:54.828Z,13.80
2022-09-26T18:31:24.493Z,13.80
2022-09-26T18:33:52.158Z,13.80
2022-09-26T18:36:19.244Z,13.70
2022-09-26T18:38:46.161Z,13.70
2022-09-26T18:41:15.784Z,13.70
2022-09-26T18:43:42.866Z,13.70
2022-09-26T18:46:13.437Z,13.70
2022-09-26T18:48:41.761Z,13.60
2022-09-26T18:51:09.897Z,13.60
2022-09-26T18:53:40.486Z,13.60
2022-09-26T18:56:26.381Z,13.60
2022-09-26T18:58:55.180Z,13.60
2022-09-26T19:01:38.294Z,13.60
2022-09-26T19:04:06.914Z,13.50
2022-09-26T19:06:41.750Z,13.50
2022-09-26T19:09:24.097Z,13.40
2022-09-26T19:11:54.844Z,13.40
2022-09-26T19:14:30.345Z,13.30
2022-09-26T19:16:57.687Z,13.30
2022-09-26T19:19:24.858Z,13.30
2022-09-26T19:21:54.602Z,13.30
2022-09-26T19:24:45.505Z,13.20
2022-09-26T19:27:19.567Z,13.20
2022-09-26T19:29:59.724Z,13.20
2022-09-26T19:32:43.783Z,13.20
2022-09-26T19:35:31.500Z,13.20
2022-09-26T19:38:07.081Z,13.30
2022-09-26T19:40:49.014Z,13.30
2022-09-26T19:43:18.196Z,13.20
2022-09-26T19:45:53.223Z,13.20
2022-09-26T19:48:23.718Z,13.30
2022-09-26T19:50:53.099Z,13.30
2022-09-26T19:53:23.906Z,13.20
2022-09-26T19:55:52.154Z,13.20
2022-09-26T19:58:22.806Z,13.20
2022-09-26T20:00:55.357Z,13.20
2022-09-26T20:03:31.019Z,13.20
2022-09-26T20:05:59.472Z,13.10
2022-09-26T20:08:26.989Z,13.10
2022-09-26T20:10:55.182Z,13.10
2022-09-26T20:13:22.715Z,13.00
2022-09-26T20:15:50.098Z,13.00
2022-09-26T20:18:22.246Z,12.90
2022-09-26T20:20:53.598Z,12.90
2022-09-26T20:23:22.360Z,12.80
2022-09-26T20:25:49.791Z,12.80
2022-09-26T20:28:16.954Z,12.70
2022-09-26T20:30:59.689Z,12.70
2022-09-26T20:33:28.836Z,12.70
2022-09-26T20:36:02.910Z,12.70
2022-09-26T20:38:46.116Z,12.70
2022-09-26T20:41:24.409Z,12.70
2022-09-26T20:43:57.658Z,12.60
2022-09-26T20:46:26.613Z,12.60
2022-09-26T20:48:54.142Z,12.70
2022-09-26T20:51:25.351Z,12.60
2022-09-26T20:53:53.463Z,12.60
2022-09-26T20:56:22.213Z,12.60
2022-09-26T20:58:49.393Z,12.60
2022-09-26T21:01:17.759Z,12.60
2022-09-26T21:03:50.143Z,12.60
2022-09-26T21:06:22.352Z,12.60
2022-09-26T21:08:49.353Z,12.60
2022-09-26T21:11:19.125Z,12.60
2022-09-26T21:13:46.365Z,12.60
2022-09-26T21:16:14.583Z,12.60
2022-09-26T21:18:41.661Z,12.60
2022-09-26T21:21:11.080Z,12.60
2022-09-26T21:23:42.111Z,12.60
2022-09-26T21:26:31.342Z,12.60
2022-09-26T21:28:58.371Z,12.60
2022-09-26T21:31:30.154Z,12.50
2022-09-26T21:33:57.147Z,12.60
2022-09-26T21:36:24.333Z,12.50
2022-09-26T21:38:55.654Z,12.50
2022-09-26T21:41:25.289Z,12.50
2022-09-26T21:43:57.220Z,12.50
2022-09-26T21:46:27.013Z,12.50
2022-09-26T21:48:55.073Z,12.50
2022-09-26T21:51:23.647Z,12.50
2022-09-26T21:53:57.077Z,12.50
2022-09-26T21:56:27.474Z,12.50
2022-09-26T21:58:55.007Z,12.50
2022-09-26T22:01:24.559Z,12.50
2022-09-26T22:03:52.702Z,12.50
2022-09-26T22:06:20.836Z,12.50
2022-09-26T22:08:49.353Z,12.50
2022-09-26T22:11:18.005Z,12.50
2022-09-26T22:13:45.912Z,12.50
2022-09-26T22:16:14.352Z,12.50
2022-09-26T22:18:42.784Z,12.50
2022-09-26T22:21:12.809Z,12.50
2022-09-26T22:23:42.299Z,12.60
2022-09-26T22:26:10.025Z,12.50
2022-09-26T22:28:38.222Z,12.60
2022-09-26T22:31:06.605Z,12.60
2022-09-26T22:33:35.053Z,12.60
2022-09-26T22:36:04.372Z,12.60
2022-09-26T22:38:33.561Z,12.60
2022-09-26T22:41:05.124Z,12.60
2022-09-26T22:43:32.627Z,12.60
2022-09-26T22:46:10.383Z,12.60
2022-09-26T22:48:41.378Z,12.70
2022-09-26T22:51:08.698Z,12.70
2022-09-26T22:53:36.833Z,12.70
2022-09-26T22:56:06.926Z,12.70
2022-09-26T22:58:44.549Z,12.70
2022-09-26T23:01:13.625Z,12.70
2022-09-26T23:03:41.008Z,12.70
2022-09-26T23:06:08.597Z,12.70
2022-09-26T23:08:35.882Z,12.70
2022-09-26T23:11:03.175Z,12.70
2022-09-26T23:13:31.634Z,12.70
2022-09-26T23:16:06.167Z,12.70
2022-09-26T23:18:34.708Z,12.70
2022-09-26T23:21:09.213Z,12.70
2022-09-26T23:23:36.683Z,12.70
2022-09-26T23:26:05.360Z,12.70
2022-09-26T23:28:33.448Z,12.70
2022-09-26T23:31:07.856Z,12.70
2022-09-26T23:33:35.030Z,12.70
2022-09-26T23:36:02.456Z,12.70
2022-09-26T23:38:29.892Z,12.70
2022-09-26T23:40:57.473Z,12.70
2022-09-26T23:43:25.085Z,12.70
2022-09-26T23:45:52.584Z,12.70
2022-09-26T23:48:19.969Z,12.70
2022-09-26T23:50:47.693Z,12.70
2022-09-26T23:53:15.404Z,12.80
2022-09-26T23:55:42.878Z,12.80
2022-09-26T23:58:10.733Z,12.80
